sensor_id;sensor_type;location;lat;lon;timestamp;P1;durP1;ratioP1;P2;durP2;ratioP2
28605;SDS011;46498;49.968;7.754;2023-07-29T00:01:47;2.12;;;1.20;;
28605;SDS011;46498;49.968;7.754;2023-07-29T00:06:50;1.33;;;1.08;;
28605;SDS011;46498;49.968;7.754;2023-07-29T00:11:50;3.12;;;1.10;;
28605;SDS011;46498;49.968;7.754;2023-07-29T00:16:51;2.35;;;1.23;;
28605;SDS011;46498;49.968;7.754;2023-07-29T00:21:52;2.78;;;1.45;;
28605;SDS011;46498;49.968;7.754;2023-07-29T00:26:53;3.15;;;1.50;;
28605;SDS011;46498;49.968;7.754;2023-07-29T00:31:55;3.83;;;1.48;;
28605;SDS011;46498;49.968;7.754;2023-07-29T00:36:55;1.80;;;1.42;;
28605;SDS011;46498;49.968;7.754;2023-07-29T00:41:56;4.45;;;1.90;;
28605;SDS011;46498;49.968;7.754;2023-07-29T00:46:57;2.15;;;1.40;;
28605;SDS011;46498;49.968;7.754;2023-07-29T00:52:01;4.00;;;1.23;;
28605;SDS011;46498;49.968;7.754;2023-07-29T00:57:02;2.85;;;1.55;;
28605;SDS011;46498;49.968;7.754;2023-07-29T01:02:03;3.50;;;1.65;;
28605;SDS011;46498;49.968;7.754;2023-07-29T01:07:18;2.95;;;1.20;;
28605;SDS011;46498;49.968;7.754;2023-07-29T01:13:28;3.62;;;1.50;;
28605;SDS011;46498;49.968;7.754;2023-07-29T01:18:38;5.22;;;2.00;;
28605;SDS011;46498;49.968;7.754;2023-07-29T01:23:39;2.95;;;1.67;;
28605;SDS011;46498;49.968;7.754;2023-07-29T01:28:40;2.35;;;1.62;;
28605;SDS011;46498;49.968;7.754;2023-07-29T01:39:14;2.28;;;2.00;;
28605;SDS011;46498;49.968;7.754;2023-07-29T01:44:17;1.85;;;1.70;;
28605;SDS011;46498;49.968;7.754;2023-07-29T01:49:21;3.65;;;1.70;;
28605;SDS011;46498;49.968;7.754;2023-07-29T01:54:22;2.58;;;2.03;;
28605;SDS011;46498;49.968;7.754;2023-07-29T01:59:23;1.87;;;1.75;;
28605;SDS011;46498;49.968;7.754;2023-07-29T02:04:24;4.20;;;2.10;;
28605;SDS011;46498;49.968;7.754;2023-07-29T02:09:25;4.93;;;2.30;;
28605;SDS011;46498;49.968;7.754;2023-07-29T02:14:26;3.15;;;2.03;;
28605;SDS011;46498;49.968;7.754;2023-07-29T02:19:27;2.55;;;2.17;;
28605;SDS011;46498;49.968;7.754;2023-07-29T02:24:28;3.75;;;2.37;;
28605;SDS011;46498;49.968;7.754;2023-07-29T02:29:29;2.67;;;2.33;;
28605;SDS011;46498;49.968;7.754;2023-07-29T02:34:31;4.43;;;3.07;;
28605;SDS011;46498;49.968;7.754;2023-07-29T02:39:32;2.60;;;2.20;;
28605;SDS011;46498;49.968;7.754;2023-07-29T02:44:33;3.40;;;2.97;;
28605;SDS011;46498;49.968;7.754;2023-07-29T02:49:34;4.00;;;2.62;;
28605;SDS011;46498;49.968;7.754;2023-07-29T02:54:34;5.07;;;2.92;;
28605;SDS011;46498;49.968;7.754;2023-07-29T02:59:35;4.22;;;2.53;;
28605;SDS011;46498;49.968;7.754;2023-07-29T03:04:36;3.92;;;3.20;;
28605;SDS011;46498;49.968;7.754;2023-07-29T03:09:38;5.32;;;2.60;;
28605;SDS011;46498;49.968;7.754;2023-07-29T03:14:38;5.30;;;3.35;;
28605;SDS011;46498;49.968;7.754;2023-07-29T03:19:39;3.58;;;3.22;;
28605;SDS011;46498;49.968;7.754;2023-07-29T03:24:40;3.80;;;3.28;;
28605;SDS011;46498;49.968;7.754;2023-07-29T03:29:43;4.82;;;3.90;;
28605;SDS011;46498;49.968;7.754;2023-07-29T03:34:44;5.47;;;3.50;;
28605;SDS011;46498;49.968;7.754;2023-07-29T03:39:45;7.37;;;3.87;;
28605;SDS011;46498;49.968;7.754;2023-07-29T03:44:46;4.30;;;3.90;;
28605;SDS011;46498;49.968;7.754;2023-07-29T03:49:46;5.53;;;3.70;;
28605;SDS011;46498;49.968;7.754;2023-07-29T03:54:49;5.07;;;4.25;;
28605;SDS011;46498;49.968;7.754;2023-07-29T03:59:50;5.07;;;4.43;;
28605;SDS011;46498;49.968;7.754;2023-07-29T04:04:51;7.18;;;4.60;;
28605;SDS011;46498;49.968;7.754;2023-07-29T04:09:52;4.70;;;4.20;;
28605;SDS011;46498;49.968;7.754;2023-07-29T04:14:53;5.95;;;4.47;;
28605;SDS011;46498;49.968;7.754;2023-07-29T04:19:54;7.30;;;4.30;;
28605;SDS011;46498;49.968;7.754;2023-07-29T04:24:56;9.00;;;5.55;;
28605;SDS011;46498;49.968;7.754;2023-07-29T04:29:57;6.43;;;5.05;;
28605;SDS011;46498;49.968;7.754;2023-07-29T04:34:58;5.05;;;4.55;;
28605;SDS011;46498;49.968;7.754;2023-07-29T04:39:59;5.70;;;5.07;;
28605;SDS011;46498;49.968;7.754;2023-07-29T04:45:00;7.35;;;5.80;;
28605;SDS011;46498;49.968;7.754;2023-07-29T04:50:01;12.05;;;7.12;;
28605;SDS011;46498;49.968;7.754;2023-07-29T04:55:04;6.30;;;5.65;;
28605;SDS011;46498;49.968;7.754;2023-07-29T05:00:05;8.40;;;5.50;;
28605;SDS011;46498;49.968;7.754;2023-07-29T05:05:07;7.03;;;6.25;;
28605;SDS011;46498;49.968;7.754;2023-07-29T05:10:08;6.47;;;5.80;;
28605;SDS011;46498;49.968;7.754;2023-07-29T05:15:09;7.25;;;6.03;;
28605;SDS011;46498;49.968;7.754;2023-07-29T05:20:11;6.28;;;4.78;;
28605;SDS011;46498;49.968;7.754;2023-07-29T05:25:12;11.43;;;5.97;;
28605;SDS011;46498;49.968;7.754;2023-07-29T05:30:13;10.88;;;5.40;;
28605;SDS011;46498;49.968;7.754;2023-07-29T05:35:14;9.23;;;5.07;;
28605;SDS011;46498;49.968;7.754;2023-07-29T05:40:15;12.85;;;6.60;;
28605;SDS011;46498;49.968;7.754;2023-07-29T05:45:17;8.50;;;5.67;;
28605;SDS011;46498;49.968;7.754;2023-07-29T05:50:18;8.00;;;5.72;;
28605;SDS011;46498;49.968;7.754;2023-07-29T05:55:19;7.25;;;6.15;;
28605;SDS011;46498;49.968;7.754;2023-07-29T06:00:20;7.20;;;5.18;;
28605;SDS011;46498;49.968;7.754;2023-07-29T06:05:21;7.62;;;5.25;;
28605;SDS011;46498;49.968;7.754;2023-07-29T06:10:22;8.75;;;5.15;;
28605;SDS011;46498;49.968;7.754;2023-07-29T06:15:24;7.78;;;5.55;;
28605;SDS011;46498;49.968;7.754;2023-07-29T06:20:25;6.35;;;5.30;;
28605;SDS011;46498;49.968;7.754;2023-07-29T06:25:26;8.52;;;5.47;;
28605;SDS011;46498;49.968;7.754;2023-07-29T06:30:26;9.30;;;6.37;;
28605;SDS011;46498;49.968;7.754;2023-07-29T06:35:27;12.13;;;6.70;;
28605;SDS011;46498;49.968;7.754;2023-07-29T06:40:28;9.35;;;6.78;;
28605;SDS011;46498;49.968;7.754;2023-07-29T06:45:29;6.57;;;5.30;;
28605;SDS011;46498;49.968;7.754;2023-07-29T06:50:30;9.05;;;7.20;;
28605;SDS011;46498;49.968;7.754;2023-07-29T06:55:31;9.55;;;5.97;;
28605;SDS011;46498;49.968;7.754;2023-07-29T07:00:32;11.40;;;5.68;;
28605;SDS011;46498;49.968;7.754;2023-07-29T07:05:33;7.25;;;6.43;;
28605;SDS011;46498;49.968;7.754;2023-07-29T07:10:33;5.45;;;4.90;;
28605;SDS011;46498;49.968;7.754;2023-07-29T07:15:34;5.03;;;4.22;;
28605;SDS011;46498;49.968;7.754;2023-07-29T07:20:35;3.72;;;2.97;;
28605;SDS011;46498;49.968;7.754;2023-07-29T07:25:36;2.62;;;2.42;;
28605;SDS011;46498;49.968;7.754;2023-07-29T07:30:40;4.18;;;2.58;;
28605;SDS011;46498;49.968;7.754;2023-07-29T07:35:42;2.47;;;1.90;;
28605;SDS011;46498;49.968;7.754;2023-07-29T07:40:46;2.20;;;1.83;;
28605;SDS011;46498;49.968;7.754;2023-07-29T07:45:58;1.92;;;1.73;;
28605;SDS011;46498;49.968;7.754;2023-07-29T07:51:22;2.22;;;1.65;;
28605;SDS011;46498;49.968;7.754;2023-07-29T07:56:26;1.75;;;1.60;;
28605;SDS011;46498;49.968;7.754;2023-07-29T08:01:27;4.07;;;1.65;;
28605;SDS011;46498;49.968;7.754;2023-07-29T08:06:28;4.12;;;1.50;;
28605;SDS011;46498;49.968;7.754;2023-07-29T08:11:30;6.57;;;1.70;;
28605;SDS011;46498;49.968;7.754;2023-07-29T08:16:32;2.60;;;1.62;;
28605;SDS011;46498;49.968;7.754;2023-07-29T08:21:33;3.30;;;1.50;;
28605;SDS011;46498;49.968;7.754;2023-07-29T08:26:34;3.30;;;1.25;;
28605;SDS011;46498;49.968;7.754;2023-07-29T08:31:35;3.42;;;1.40;;
28605;SDS011;46498;49.968;7.754;2023-07-29T08:36:36;3.50;;;1.50;;
28605;SDS011;46498;49.968;7.754;2023-07-29T08:41:41;4.65;;;1.45;;
28605;SDS011;46498;49.968;7.754;2023-07-29T08:46:50;3.45;;;1.67;;
28605;SDS011;46498;49.968;7.754;2023-07-29T08:51:52;1.77;;;1.40;;
28605;SDS011;46498;49.968;7.754;2023-07-29T08:56:54;3.55;;;1.25;;
28605;SDS011;46498;49.968;7.754;2023-07-29T09:01:55;4.00;;;1.70;;
28605;SDS011;46498;49.968;7.754;2023-07-29T09:06:58;3.05;;;1.40;;
28605;SDS011;46498;49.968;7.754;2023-07-29T09:11:59;2.37;;;1.25;;
28605;SDS011;46498;49.968;7.754;2023-07-29T09:17:00;3.37;;;1.33;;
28605;SDS011;46498;49.968;7.754;2023-07-29T09:22:01;3.30;;;1.75;;
28605;SDS011;46498;49.968;7.754;2023-07-29T09:27:03;2.00;;;1.52;;
28605;SDS011;46498;49.968;7.754;2023-07-29T09:32:20;2.72;;;1.60;;
28605;SDS011;46498;49.968;7.754;2023-07-29T09:37:22;2.58;;;1.20;;
28605;SDS011;46498;49.968;7.754;2023-07-29T09:42:24;2.97;;;1.52;;
28605;SDS011;46498;49.968;7.754;2023-07-29T09:47:26;2.10;;;1.40;;
28605;SDS011;46498;49.968;7.754;2023-07-29T09:52:28;2.25;;;1.35;;
28605;SDS011;46498;49.968;7.754;2023-07-29T09:57:29;1.65;;;1.17;;
28605;SDS011;46498;49.968;7.754;2023-07-29T10:02:30;3.53;;;1.30;;
28605;SDS011;46498;49.968;7.754;2023-07-29T10:07:32;5.72;;;1.50;;
28605;SDS011;46498;49.968;7.754;2023-07-29T10:12:35;5.00;;;1.15;;
28605;SDS011;46498;49.968;7.754;2023-07-29T10:17:36;2.83;;;1.65;;
28605;SDS011;46498;49.968;7.754;2023-07-29T10:22:42;1.80;;;1.30;;
28605;SDS011;46498;49.968;7.754;2023-07-29T10:27:47;3.28;;;1.67;;
28605;SDS011;46498;49.968;7.754;2023-07-29T10:33:01;1.90;;;1.40;;
28605;SDS011;46498;49.968;7.754;2023-07-29T10:38:05;2.12;;;1.52;;
28605;SDS011;46498;49.968;7.754;2023-07-29T10:43:10;5.72;;;1.90;;
28605;SDS011;46498;49.968;7.754;2023-07-29T10:48:13;2.58;;;1.70;;
28605;SDS011;46498;49.968;7.754;2023-07-29T10:53:41;3.42;;;1.40;;
28605;SDS011;46498;49.968;7.754;2023-07-29T10:58:42;3.47;;;1.73;;
28605;SDS011;46498;49.968;7.754;2023-07-29T11:04:00;3.55;;;1.70;;
28605;SDS011;46498;49.968;7.754;2023-07-29T11:09:57;2.33;;;1.40;;
28605;SDS011;46498;49.968;7.754;2023-07-29T11:15:13;2.20;;;1.55;;
28605;SDS011;46498;49.968;7.754;2023-07-29T11:20:33;2.08;;;1.65;;
28605;SDS011;46498;49.968;7.754;2023-07-29T11:25:34;4.90;;;1.75;;
28605;SDS011;46498;49.968;7.754;2023-07-29T11:30:38;2.78;;;1.80;;
28605;SDS011;46498;49.968;7.754;2023-07-29T11:35:40;3.28;;;1.58;;
28605;SDS011;46498;49.968;7.754;2023-07-29T11:40:41;4.57;;;1.77;;
28605;SDS011;46498;49.968;7.754;2023-07-29T11:45:41;3.10;;;1.52;;
28605;SDS011;46498;49.968;7.754;2023-07-29T11:50:53;2.58;;;1.50;;
28605;SDS011;46498;49.968;7.754;2023-07-29T11:55:55;3.72;;;1.40;;
28605;SDS011;46498;49.968;7.754;2023-07-29T12:00:56;5.93;;;2.58;;
28605;SDS011;46498;49.968;7.754;2023-07-29T12:05:57;3.62;;;1.35;;
28605;SDS011;46498;49.968;7.754;2023-07-29T12:10:58;1.85;;;1.60;;
28605;SDS011;46498;49.968;7.754;2023-07-29T12:16:02;3.95;;;2.22;;
28605;SDS011;46498;49.968;7.754;2023-07-29T12:21:04;2.65;;;1.40;;
28605;SDS011;46498;49.968;7.754;2023-07-29T12:26:04;4.55;;;1.65;;
28605;SDS011;46498;49.968;7.754;2023-07-29T12:31:07;3.17;;;1.80;;
28605;SDS011;46498;49.968;7.754;2023-07-29T12:36:08;3.25;;;1.73;;
28605;SDS011;46498;49.968;7.754;2023-07-29T12:41:11;2.55;;;1.70;;
28605;SDS011;46498;49.968;7.754;2023-07-29T12:46:12;3.22;;;1.75;;
28605;SDS011;46498;49.968;7.754;2023-07-29T12:51:12;3.12;;;1.70;;
28605;SDS011;46498;49.968;7.754;2023-07-29T12:56:13;3.30;;;1.40;;
28605;SDS011;46498;49.968;7.754;2023-07-29T13:01:14;3.05;;;1.55;;
28605;SDS011;46498;49.968;7.754;2023-07-29T13:06:18;2.85;;;1.85;;
28605;SDS011;46498;49.968;7.754;2023-07-29T13:11:20;2.47;;;1.60;;
28605;SDS011;46498;49.968;7.754;2023-07-29T13:16:21;3.25;;;1.52;;
28605;SDS011;46498;49.968;7.754;2023-07-29T13:21:22;2.92;;;1.70;;
28605;SDS011;46498;49.968;7.754;2023-07-29T13:26:23;2.40;;;1.60;;
28605;SDS011;46498;49.968;7.754;2023-07-29T13:31:24;3.75;;;1.90;;
28605;SDS011;46498;49.968;7.754;2023-07-29T13:36:25;3.75;;;1.62;;
28605;SDS011;46498;49.968;7.754;2023-07-29T13:41:26;2.58;;;1.80;;
28605;SDS011;46498;49.968;7.754;2023-07-29T13:46:27;3.72;;;2.08;;
28605;SDS011;46498;49.968;7.754;2023-07-29T13:51:28;4.30;;;2.00;;
28605;SDS011;46498;49.968;7.754;2023-07-29T13:56:29;3.83;;;1.90;;
28605;SDS011;46498;49.968;7.754;2023-07-29T14:01:29;2.12;;;1.52;;
28605;SDS011;46498;49.968;7.754;2023-07-29T14:06:30;2.00;;;1.50;;
28605;SDS011;46498;49.968;7.754;2023-07-29T14:11:47;2.17;;;1.65;;
28605;SDS011;46498;49.968;7.754;2023-07-29T14:16:47;4.62;;;1.50;;
28605;SDS011;46498;49.968;7.754;2023-07-29T14:21:49;2.80;;;1.73;;
28605;SDS011;46498;49.968;7.754;2023-07-29T14:26:50;3.47;;;1.40;;
28605;SDS011;46498;49.968;7.754;2023-07-29T14:31:51;2.33;;;1.73;;
28605;SDS011;46498;49.968;7.754;2023-07-29T14:36:52;1.98;;;1.75;;
28605;SDS011;46498;49.968;7.754;2023-07-29T14:41:53;3.08;;;1.67;;
28605;SDS011;46498;49.968;7.754;2023-07-29T14:46:54;2.28;;;1.75;;
28605;SDS011;46498;49.968;7.754;2023-07-29T14:51:55;2.33;;;1.35;;
28605;SDS011;46498;49.968;7.754;2023-07-29T14:56:56;2.17;;;1.80;;
28605;SDS011;46498;49.968;7.754;2023-07-29T15:01:57;3.20;;;1.98;;
28605;SDS011;46498;49.968;7.754;2023-07-29T15:06:57;2.08;;;1.70;;
28605;SDS011;46498;49.968;7.754;2023-07-29T15:11:58;3.92;;;1.77;;
28605;SDS011;46498;49.968;7.754;2023-07-29T15:17:00;6.07;;;1.80;;
28605;SDS011;46498;49.968;7.754;2023-07-29T15:22:01;2.20;;;1.70;;
28605;SDS011;46498;49.968;7.754;2023-07-29T15:27:05;2.30;;;1.80;;
28605;SDS011;46498;49.968;7.754;2023-07-29T15:32:06;1.98;;;1.67;;
28605;SDS011;46498;49.968;7.754;2023-07-29T15:37:08;3.07;;;1.60;;
28605;SDS011;46498;49.968;7.754;2023-07-29T15:42:08;2.17;;;1.62;;
28605;SDS011;46498;49.968;7.754;2023-07-29T15:47:09;1.60;;;1.37;;
28605;SDS011;46498;49.968;7.754;2023-07-29T15:52:13;1.90;;;1.50;;
28605;SDS011;46498;49.968;7.754;2023-07-29T15:57:17;2.67;;;1.65;;
28605;SDS011;46498;49.968;7.754;2023-07-29T16:02:17;3.78;;;1.58;;
28605;SDS011;46498;49.968;7.754;2023-07-29T16:07:19;4.53;;;1.70;;
28605;SDS011;46498;49.968;7.754;2023-07-29T16:12:19;4.78;;;1.90;;
28605;SDS011;46498;49.968;7.754;2023-07-29T16:17:21;3.20;;;1.73;;
28605;SDS011;46498;49.968;7.754;2023-07-29T16:22:22;1.65;;;1.35;;
28605;SDS011;46498;49.968;7.754;2023-07-29T16:27:23;2.50;;;1.73;;
28605;SDS011;46498;49.968;7.754;2023-07-29T16:32:24;3.33;;;1.62;;
28605;SDS011;46498;49.968;7.754;2023-07-29T16:37:25;5.78;;;1.80;;
28605;SDS011;46498;49.968;7.754;2023-07-29T16:42:26;1.98;;;1.60;;
28605;SDS011;46498;49.968;7.754;2023-07-29T16:47:27;1.80;;;1.60;;
28605;SDS011;46498;49.968;7.754;2023-07-29T16:52:28;2.33;;;1.37;;
28605;SDS011;46498;49.968;7.754;2023-07-29T16:57:29;1.95;;;1.60;;
28605;SDS011;46498;49.968;7.754;2023-07-29T17:02:29;1.87;;;1.62;;
28605;SDS011;46498;49.968;7.754;2023-07-29T17:07:31;1.87;;;1.30;;
28605;SDS011;46498;49.968;7.754;2023-07-29T17:12:31;2.67;;;1.62;;
28605;SDS011;46498;49.968;7.754;2023-07-29T17:17:32;2.15;;;1.65;;
28605;SDS011;46498;49.968;7.754;2023-07-29T17:22:33;4.90;;;1.70;;
28605;SDS011;46498;49.968;7.754;2023-07-29T17:27:35;3.03;;;1.70;;
28605;SDS011;46498;49.968;7.754;2023-07-29T17:32:36;2.15;;;1.50;;
28605;SDS011;46498;49.968;7.754;2023-07-29T17:37:37;1.50;;;1.23;;
28605;SDS011;46498;49.968;7.754;2023-07-29T17:42:38;1.52;;;1.30;;
28605;SDS011;46498;49.968;7.754;2023-07-29T17:47:39;4.18;;;1.80;;
28605;SDS011;46498;49.968;7.754;2023-07-29T17:52:40;3.90;;;1.55;;
28605;SDS011;46498;49.968;7.754;2023-07-29T17:57:41;2.90;;;1.35;;
28605;SDS011;46498;49.968;7.754;2023-07-29T18:02:42;1.87;;;1.40;;
28605;SDS011;46498;49.968;7.754;2023-07-29T18:07:43;1.85;;;1.40;;
28605;SDS011;46498;49.968;7.754;2023-07-29T18:12:44;2.80;;;1.90;;
28605;SDS011;46498;49.968;7.754;2023-07-29T18:17:45;3.05;;;1.80;;
28605;SDS011;46498;49.968;7.754;2023-07-29T18:22:46;2.40;;;1.62;;
28605;SDS011;46498;49.968;7.754;2023-07-29T18:27:48;4.07;;;1.92;;
28605;SDS011;46498;49.968;7.754;2023-07-29T18:32:49;1.80;;;1.45;;
28605;SDS011;46498;49.968;7.754;2023-07-29T18:37:50;3.45;;;1.55;;
28605;SDS011;46498;49.968;7.754;2023-07-29T18:42:53;1.70;;;1.30;;
28605;SDS011;46498;49.968;7.754;2023-07-29T18:47:55;3.03;;;1.90;;
28605;SDS011;46498;49.968;7.754;2023-07-29T18:52:56;1.73;;;1.42;;
28605;SDS011;46498;49.968;7.754;2023-07-29T18:57:58;3.05;;;1.92;;
28605;SDS011;46498;49.968;7.754;2023-07-29T19:02:59;2.80;;;1.67;;
28605;SDS011;46498;49.968;7.754;2023-07-29T19:08:00;5.57;;;1.80;;
28605;SDS011;46498;49.968;7.754;2023-07-29T19:13:01;2.12;;;1.60;;
28605;SDS011;46498;49.968;7.754;2023-07-29T19:18:03;1.75;;;1.62;;
28605;SDS011;46498;49.968;7.754;2023-07-29T19:23:04;3.40;;;1.50;;
28605;SDS011;46498;49.968;7.754;2023-07-29T19:28:05;2.85;;;1.90;;
28605;SDS011;46498;49.968;7.754;2023-07-29T19:33:07;3.83;;;2.10;;
28605;SDS011;46498;49.968;7.754;2023-07-29T19:38:08;2.83;;;1.97;;
28605;SDS011;46498;49.968;7.754;2023-07-29T19:43:09;3.20;;;1.80;;
28605;SDS011;46498;49.968;7.754;2023-07-29T19:48:10;4.72;;;2.30;;
28605;SDS011;46498;49.968;7.754;2023-07-29T19:53:11;2.95;;;2.08;;
28605;SDS011;46498;49.968;7.754;2023-07-29T19:58:11;3.53;;;2.25;;
28605;SDS011;46498;49.968;7.754;2023-07-29T20:03:12;9.02;;;4.85;;
28605;SDS011;46498;49.968;7.754;2023-07-29T20:08:13;7.47;;;3.95;;
28605;SDS011;46498;49.968;7.754;2023-07-29T20:13:14;3.12;;;2.40;;
28605;SDS011;46498;49.968;7.754;2023-07-29T20:18:15;3.58;;;2.20;;
28605;SDS011;46498;49.968;7.754;2023-07-29T20:23:16;3.12;;;2.30;;
28605;SDS011;46498;49.968;7.754;2023-07-29T20:28:17;3.97;;;2.40;;
28605;SDS011;46498;49.968;7.754;2023-07-29T20:33:21;6.22;;;4.22;;
28605;SDS011;46498;49.968;7.754;2023-07-29T20:38:22;6.37;;;3.30;;
28605;SDS011;46498;49.968;7.754;2023-07-29T20:43:23;6.15;;;3.92;;
28605;SDS011;46498;49.968;7.754;2023-07-29T20:48:24;4.12;;;2.28;;
28605;SDS011;46498;49.968;7.754;2023-07-29T20:53:26;9.50;;;2.50;;
28605;SDS011;46498;49.968;7.754;2023-07-29T20:58:26;3.62;;;2.17;;
28605;SDS011;46498;49.968;7.754;2023-07-29T21:03:27;4.10;;;2.75;;
28605;SDS011;46498;49.968;7.754;2023-07-29T21:08:29;4.03;;;2.20;;
28605;SDS011;46498;49.968;7.754;2023-07-29T21:13:30;2.25;;;1.90;;
28605;SDS011;46498;49.968;7.754;2023-07-29T21:18:31;4.15;;;2.00;;
28605;SDS011;46498;49.968;7.754;2023-07-29T21:23:32;3.25;;;2.10;;
28605;SDS011;46498;49.968;7.754;2023-07-29T21:28:33;4.55;;;1.90;;
28605;SDS011;46498;49.968;7.754;2023-07-29T21:33:34;5.68;;;1.92;;
28605;SDS011;46498;49.968;7.754;2023-07-29T21:38:36;3.00;;;2.00;;
28605;SDS011;46498;49.968;7.754;2023-07-29T21:43:37;2.50;;;1.90;;
28605;SDS011;46498;49.968;7.754;2023-07-29T21:48:38;3.15;;;2.10;;
28605;SDS011;46498;49.968;7.754;2023-07-29T21:53:38;6.50;;;2.22;;
28605;SDS011;46498;49.968;7.754;2023-07-29T21:58:39;4.57;;;1.90;;
28605;SDS011;46498;49.968;7.754;2023-07-29T22:03:40;3.40;;;2.10;;
28605;SDS011;46498;49.968;7.754;2023-07-29T22:08:41;3.62;;;1.80;;
28605;SDS011;46498;49.968;7.754;2023-07-29T22:13:42;2.58;;;1.80;;
28605;SDS011;46498;49.968;7.754;2023-07-29T22:18:43;6.03;;;2.10;;
28605;SDS011;46498;49.968;7.754;2023-07-29T22:23:44;2.35;;;1.73;;
28605;SDS011;46498;49.968;7.754;2023-07-29T22:29:00;4.78;;;2.17;;
28605;SDS011;46498;49.968;7.754;2023-07-29T22:34:01;4.53;;;1.75;;
28605;SDS011;46498;49.968;7.754;2023-07-29T22:39:03;3.00;;;1.95;;
28605;SDS011;46498;49.968;7.754;2023-07-29T22:44:04;1.58;;;1.48;;
28605;SDS011;46498;49.968;7.754;2023-07-29T22:49:05;2.65;;;1.55;;
28605;SDS011;46498;49.968;7.754;2023-07-29T22:54:07;3.50;;;1.50;;
28605;SDS011;46498;49.968;7.754;2023-07-29T22:59:07;2.28;;;1.50;;
28605;SDS011;46498;49.968;7.754;2023-07-29T23:04:09;2.80;;;1.70;;
28605;SDS011;46498;49.968;7.754;2023-07-29T23:09:10;2.12;;;1.50;;
28605;SDS011;46498;49.968;7.754;2023-07-29T23:14:11;4.15;;;1.70;;
28605;SDS011;46498;49.968;7.754;2023-07-29T23:19:11;1.52;;;1.23;;
28605;SDS011;46498;49.968;7.754;2023-07-29T23:24:13;2.85;;;1.70;;
28605;SDS011;46498;49.968;7.754;2023-07-29T23:29:13;2.92;;;1.73;;
28605;SDS011;46498;49.968;7.754;2023-07-29T23:34:14;1.70;;;1.20;;
28605;SDS011;46498;49.968;7.754;2023-07-29T23:39:15;1.83;;;1.33;;
28605;SDS011;46498;49.968;7.754;2023-07-29T23:44:16;2.53;;;1.33;;
28605;SDS011;46498;49.968;7.754;2023-07-29T23:49:17;3.53;;;1.45;;
28605;SDS011;46498;49.968;7.754;2023-07-29T23:54:18;1.55;;;1.37;;
28605;SDS011;46498;49.968;7.754;2023-07-29T23:59:18;3.00;;;1.00;;
